• Join FlightAware (Why Join?)
  • Login
  • US Flag 
Trick or treat! (Boo!!) 
05:39PM EDT


 

Airport Tracker/Info


-or-


 

Live Flight TrackerFlight Track Log ✈ LBQ792 ✈ 30-Apr-2013 ✈ KBWI - KRDG

Flight Track Log - Related Links

Times and Time Zones

All times are in EDT time to prevent confusion due to time zone crossing. See the LBQ792 flight status page for this flight to view local times or setup timezone preferences in your user account.

Time Position Orientation Groundspeed Altitude Reporting Facility
EDT Latitude Longitude Course Direction KTS MPH feet Rate Location/Type
02:51AM 39.2167 -76.6167 21° North 136 157 3,100  Level Potomac TRACON
02:52AM 39.2500 -76.5833 38° Northeast 150 173 4,800 1,620 Climbing Potomac TRACON
02:53AM 39.3000 -76.5667 14° North 155 178 6,400 1,560 Climbing Potomac TRACON
02:55AM 39.4238 -76.6226 North  Level FlightAware Approximate
03:02AM 39.8960 -76.4765 32° Northeast  Level FlightAware Approximate
03:03AM 39.9430 -76.4390 212° Southwest  Level FlightAware Approximate
03:04AM 39.8819 -76.4878 212° Southwest  Level FlightAware Approximate
03:05AM 39.8241 -76.5426 218° Southwest  Level FlightAware Approximate
03:06AM 39.8681 -76.5045 34° Northeast  Level FlightAware Approximate
03:07AM 39.9273 -76.4520 34° Northeast  Level FlightAware Approximate
03:08AM 39.9865 -76.3994 34° Northeast  Level FlightAware Approximate
03:09AM 40.0456 -76.3467 34° Northeast  Level FlightAware Approximate
03:10AM 40.1048 -76.2940 34° Northeast  Level FlightAware Approximate
03:11AM 40.1545 -76.2288 37° Northeast  Level FlightAware Approximate
03:12AM 40.2013 -76.1654 37° Northeast  Level FlightAware Approximate
03:13AM 40.2582 -76.1085 37° Northeast  Level FlightAware Approximate
03:14AM 40.3005 -76.0383 45° Northeast  Level FlightAware Approximate
03:15AM 40.3507 -75.9713 45° Northeast  Level FlightAware Approximate
03:16AM 40.3667 -75.9500 45° Northeast  Level FlightAware Approximate
03:17AM 40.3785 -75.9652 45° Northeast  Level Estimated
03:18AM 40.3785 -75.9652 45° Northeast  Level Estimated
03:19AM 40.3785 -75.9652 45° Northeast  Level Estimated
03:20AM 40.3785 -75.9652 45° Northeast  Level Estimated
03:21AM 40.3785 -75.9652 45° Northeast  Level Estimated
03:22AM 40.3785 -75.9652 45° Northeast  Level Estimated